createdAt,value
2017-11-29T00:00:45.898Z,79.52
2017-11-29T00:01:46.171Z,79.33
2017-11-29T00:02:46.190Z,79.23
2017-11-29T00:03:45.955Z,79.61
2017-11-29T00:04:46.226Z,79.52
2017-11-29T00:05:46.240Z,79.52
2017-11-29T00:06:46.244Z,80.56
2017-11-29T00:07:46.262Z,80.46
2017-11-29T00:08:46.276Z,80.37
2017-11-29T00:09:46.299Z,80.46
2017-11-29T00:10:46.306Z,81.23
2017-11-29T00:11:46.323Z,81.13
2017-11-29T00:12:46.334Z,80.75
2017-11-29T00:13:46.350Z,80.65
2017-11-29T00:14:46.366Z,80.65
2017-11-29T00:15:46.126Z,81.75
2017-11-29T00:16:46.141Z,82.04
2017-11-29T00:17:46.414Z,82.51
2017-11-29T00:18:46.474Z,82.42
2017-11-29T00:19:46.438Z,81.85
2017-11-29T00:20:46.451Z,82.23
2017-11-29T00:21:46.214Z,82.42
2017-11-29T00:22:46.486Z,82.23
2017-11-29T00:23:46.509Z,82.42
2017-11-29T00:24:46.517Z,81.66
2017-11-29T00:25:46.529Z,81.7
2017-11-29T00:26:46.558Z,81.88
2017-11-29T00:27:46.558Z,81.75
2017-11-29T00:28:46.577Z,81.75
2017-11-29T00:29:46.333Z,81.56
2017-11-29T00:30:46.601Z,81.85
2017-11-29T00:31:46.622Z,81.85
2017-11-29T00:32:46.636Z,81.66
2017-11-29T00:33:46.700Z,81.66
2017-11-29T00:34:46.664Z,81.88
2017-11-29T00:35:46.689Z,81.85
2017-11-29T00:36:46.705Z,81.94
2017-11-29T00:37:46.448Z,81.66
2017-11-29T00:38:46.718Z,80.94
2017-11-29T00:39:46.733Z,81.04
2017-11-29T00:40:46.750Z,81.04
2017-11-29T00:41:46.766Z,81.13
2017-11-29T00:42:46.775Z,80.65
2017-11-29T00:43:46.791Z,80.65
2017-11-29T00:44:46.809Z,80.18
2017-11-29T00:45:46.843Z,80.08
2017-11-29T00:46:46.837Z,79.99
2017-11-29T00:47:46.859Z,79.99
2017-11-29T00:48:46.661Z,79.42
2017-11-29T00:49:46.624Z,79.23
2017-11-29T00:50:46.899Z,78.66
2017-11-29T00:51:46.910Z,79.33
2017-11-29T00:52:46.924Z,79.52
2017-11-29T00:53:46.942Z,80.27
2017-11-29T00:54:46.956Z,80.18
2017-11-29T00:55:46.715Z,80.08
2017-11-29T00:56:46.987Z,80.08
2017-11-29T00:57:46.744Z,79.52
2017-11-29T00:58:46.761Z,79.52
2017-11-29T00:59:47.029Z,79.42
2017-11-29T01:00:47.045Z,79.61
2017-11-29T01:01:47.060Z,79.61
2017-11-29T01:02:47.077Z,79.42
2017-11-29T01:03:46.884Z,79.61
2017-11-29T01:04:47.105Z,79.61
2017-11-29T01:05:47.126Z,79.9
2017-11-29T01:06:46.879Z,80.08
2017-11-29T01:07:47.155Z,79.9
2017-11-29T01:08:47.170Z,80.75
2017-11-29T01:09:47.178Z,80.84
2017-11-29T01:10:47.195Z,80.56
2017-11-29T01:11:47.208Z,80.52
2017-11-29T01:12:47.228Z,80.56
2017-11-29T01:13:47.243Z,80.65
2017-11-29T01:14:47.260Z,80.37
2017-11-29T01:15:47.266Z,80.37
2017-11-29T01:16:47.283Z,80.08
2017-11-29T01:17:47.055Z,79.99
2017-11-29T01:18:47.321Z,80.8
2017-11-29T01:19:47.331Z,80.71
2017-11-29T01:20:47.500Z,81.13
2017-11-29T01:21:47.117Z,81.04
2017-11-29T01:22:47.377Z,80.43
2017-11-29T01:23:47.126Z,80.43
2017-11-29T01:24:47.399Z,80.14
2017-11-29T01:25:47.169Z,80.62
2017-11-29T01:26:47.431Z,80.46
2017-11-29T01:27:47.444Z,79.9
2017-11-29T01:28:47.460Z,79.9
2017-11-29T01:29:47.216Z,80.37
2017-11-29T01:30:47.497Z,80.24
2017-11-29T01:31:47.508Z,79.85
2017-11-29T01:32:47.555Z,79.76
2017-11-29T01:33:47.533Z,80.08
2017-11-29T01:34:47.545Z,80.56
2017-11-29T01:35:47.616Z,79.85
2017-11-29T01:36:47.320Z,80.37
2017-11-29T01:37:47.617Z,80.14
2017-11-29T01:38:47.607Z,79.99
2017-11-29T01:39:47.625Z,79.71
2017-11-29T01:40:47.633Z,79.52
2017-11-29T01:41:47.647Z,79.14
2017-11-29T01:42:47.668Z,79.61
2017-11-29T01:43:47.687Z,80.08
2017-11-29T01:44:47.439Z,80.33
2017-11-29T01:45:47.455Z,80.37
2017-11-29T01:46:47.475Z,80.04
2017-11-29T01:47:47.744Z,80.71
2017-11-29T01:48:47.496Z,81.18
2017-11-29T01:49:47.767Z,80.8
2017-11-29T01:50:47.782Z,81.09
2017-11-29T01:51:47.802Z,81.27
2017-11-29T01:52:47.554Z,80.52
2017-11-29T01:53:47.570Z,80.14
2017-11-29T01:54:47.839Z,80.8
2017-11-29T01:55:47.856Z,80.37
2017-11-29T01:56:47.872Z,80.52
2017-11-29T01:57:47.890Z,80.71
2017-11-29T01:58:47.900Z,80.62
2017-11-29T01:59:47.916Z,80.71
2017-11-29T02:00:47.673Z,80.43
2017-11-29T02:01:47.945Z,80.27
2017-11-29T02:02:47.960Z,80.37
2017-11-29T02:03:48.073Z,80.14
2017-11-29T02:04:47.987Z,80.33
2017-11-29T02:05:48.002Z,80.62
2017-11-29T02:06:47.764Z,80.46
2017-11-29T02:07:48.065Z,80.08
2017-11-29T02:08:48.096Z,79.8
2017-11-29T02:09:48.060Z,79.95
2017-11-29T02:10:47.816Z,80.04
2017-11-29T02:11:47.830Z,80.33
2017-11-29T02:12:48.104Z,80.14
2017-11-29T02:13:48.117Z,79.99
2017-11-29T02:14:47.875Z,79.99
2017-11-29T02:15:48.157Z,79.95
2017-11-29T02:16:48.161Z,80.04
2017-11-29T02:17:48.181Z,79.9
2017-11-29T02:18:48.190Z,80.14
2017-11-29T02:19:48.205Z,80.52
2017-11-29T02:20:48.218Z,80.52
2017-11-29T02:21:47.977Z,80.33
2017-11-29T02:22:48.245Z,80.37
2017-11-29T02:23:48.268Z,80.08
2017-11-29T02:24:48.020Z,79.61
2017-11-29T02:25:48.345Z,79.52
2017-11-29T02:26:48.305Z,80.04
2017-11-29T02:27:48.319Z,80.04
2017-11-29T02:28:48.346Z,80.08
2017-11-29T02:29:48.355Z,79.99
2017-11-29T02:30:48.369Z,79.8
2017-11-29T02:31:48.376Z,79.33
2017-11-29T02:32:48.400Z,79.61
2017-11-29T02:33:48.413Z,80.04
2017-11-29T02:34:48.427Z,79.71
2017-11-29T02:35:48.180Z,79.61
2017-11-29T02:36:48.457Z,79.33
2017-11-29T02:37:48.468Z,78.95
2017-11-29T02:38:48.479Z,79.04
2017-11-29T02:39:48.239Z,78.95
2017-11-29T02:40:48.529Z,78.95
2017-11-29T02:41:48.320Z,79.14
2017-11-29T02:42:48.548Z,79.14
2017-11-29T02:43:48.561Z,78.85
2017-11-29T02:44:48.573Z,79.61
2017-11-29T02:45:48.581Z,79.23
2017-11-29T02:46:48.598Z,79.14
2017-11-29T02:47:48.612Z,78.75
2017-11-29T02:48:48.376Z,78.47
2017-11-29T02:49:48.639Z,77.9
2017-11-29T02:50:48.656Z,78
2017-11-29T02:51:48.670Z,78.19
2017-11-29T02:52:48.689Z,78
2017-11-29T02:53:48.444Z,78.38
2017-11-29T02:54:48.735Z,78.19
2017-11-29T02:55:48.471Z,78.19
2017-11-29T02:56:48.793Z,77.43
2017-11-29T02:57:48.760Z,77.62
2017-11-29T02:58:48.770Z,77.9
2017-11-29T02:59:48.530Z,78.38
2017-11-29T03:00:48.808Z,78.34
2017-11-29T03:01:48.818Z,78.56
2017-11-29T03:02:48.835Z,78.47
2017-11-29T03:03:48.847Z,78.19
2017-11-29T03:04:48.858Z,78
2017-11-29T03:05:48.618Z,78.19
2017-11-29T03:06:48.891Z,78.19
2017-11-29T03:07:48.949Z,77.9
2017-11-29T03:08:48.662Z,77.43
2017-11-29T03:09:48.676Z,77.62
2017-11-29T03:10:48.947Z,77.24
2017-11-29T03:11:48.756Z,77.24
2017-11-29T03:12:48.720Z,77.43
2017-11-29T03:13:48.994Z,77.14
2017-11-29T03:14:49.009Z,77.81
2017-11-29T03:15:49.030Z,77.81
2017-11-29T03:16:49.044Z,78
2017-11-29T03:17:48.795Z,78.38
2017-11-29T03:18:49.085Z,78.28
2017-11-29T03:19:49.082Z,78.09
2017-11-29T03:20:48.838Z,78.19
2017-11-29T03:21:49.116Z,78.19
2017-11-29T03:22:49.123Z,78.28
2017-11-29T03:23:49.150Z,78.09
2017-11-29T03:24:49.158Z,78
2017-11-29T03:25:49.186Z,78.56
2017-11-29T03:26:49.231Z,78.85
2017-11-29T03:27:48.942Z,78.95
2017-11-29T03:28:49.213Z,79.33
2017-11-29T03:29:48.970Z,79.23
2017-11-29T03:30:49.246Z,78.95
2017-11-29T03:31:49.255Z,78.75
2017-11-29T03:32:49.273Z,78.75
2017-11-29T03:33:49.285Z,79.23
2017-11-29T03:34:49.044Z,79.14
2017-11-29T03:35:49.316Z,78.95
2017-11-29T03:36:49.072Z,78.56
2017-11-29T03:37:49.355Z,79.14
2017-11-29T03:38:49.359Z,79.04
2017-11-29T03:39:49.374Z,79.52
2017-11-29T03:40:49.385Z,79.52
2017-11-29T03:41:49.402Z,79.33
2017-11-29T03:42:49.165Z,79.52
2017-11-29T03:43:49.198Z,79.52
2017-11-29T03:44:49.466Z,79.33
2017-11-29T03:45:49.461Z,80.14
2017-11-29T03:46:49.220Z,80.08
2017-11-29T03:47:49.236Z,80.27
2017-11-29T03:48:49.249Z,80.18
2017-11-29T03:49:49.261Z,79.99
2017-11-29T03:50:49.534Z,79.9
2017-11-29T03:51:49.546Z,79.9
2017-11-29T03:52:49.306Z,79.99
2017-11-29T03:53:49.578Z,80.37
2017-11-29T03:54:49.601Z,80.43
2017-11-29T03:55:49.348Z,80.37
2017-11-29T03:56:49.628Z,80.43
2017-11-29T03:57:49.637Z,80.56
2017-11-29T03:58:49.660Z,80.18
2017-11-29T03:59:49.723Z,79.9
2017-11-29T04:00:49.681Z,79.61
2017-11-29T04:01:49.694Z,80.18
2017-11-29T04:02:49.709Z,80.37
2017-11-29T04:03:49.728Z,80.52
2017-11-29T04:04:49.509Z,80.8
2017-11-29T04:05:49.756Z,80.43
2017-11-29T04:06:49.509Z,80.46
2017-11-29T04:07:49.784Z,80.37
2017-11-29T04:08:49.795Z,79.9
2017-11-29T04:09:49.811Z,79.71
2017-11-29T04:10:49.836Z,79.71
2017-11-29T04:11:49.582Z,79.71
2017-11-29T04:12:49.857Z,80.04
2017-11-29T04:13:49.870Z,80.04
2017-11-29T04:14:49.937Z,80.24
2017-11-29T04:15:49.647Z,80.65
2017-11-29T04:16:49.911Z,80.56
2017-11-29T04:17:49.667Z,80.56
2017-11-29T04:18:49.941Z,80.46
2017-11-29T04:19:49.700Z,79.9
2017-11-29T04:20:49.969Z,80.08
2017-11-29T04:21:50.001Z,79.71
2017-11-29T04:22:50.014Z,80.08
2017-11-29T04:23:49.760Z,80.27
2017-11-29T04:24:50.026Z,80.18
2017-11-29T04:25:49.787Z,79.95
2017-11-29T04:26:50.066Z,79.99
2017-11-29T04:27:50.081Z,79.9
2017-11-29T04:28:49.831Z,80.33
2017-11-29T04:29:49.895Z,80.08
2017-11-29T04:30:49.859Z,79.99
2017-11-29T04:31:49.876Z,79.9
2017-11-29T04:32:50.144Z,79.52
2017-11-29T04:33:50.178Z,79.52
2017-11-29T04:34:50.173Z,80.14
2017-11-29T04:35:50.187Z,79.99
2017-11-29T04:36:50.206Z,79.99
2017-11-29T04:37:50.222Z,79.9
2017-11-29T04:38:50.233Z,79.61
2017-11-29T04:39:49.990Z,79.23
2017-11-29T04:40:50.016Z,79.52
2017-11-29T04:41:50.278Z,79.33
2017-11-29T04:42:50.296Z,79.42
2017-11-29T04:43:50.307Z,79.14
2017-11-29T04:44:50.371Z,79.04
2017-11-29T04:45:50.346Z,78.75
2017-11-29T04:46:50.351Z,79.9
2017-11-29T04:47:50.366Z,79.28
2017-11-29T04:48:50.132Z,79.61
2017-11-29T04:49:50.397Z,80.08
2017-11-29T04:50:50.413Z,79.9
2017-11-29T04:51:50.430Z,80.43
2017-11-29T04:52:50.182Z,80.52
2017-11-29T04:53:50.200Z,80.62
2017-11-29T04:54:50.472Z,80.46
2017-11-29T04:55:50.482Z,80.37
2017-11-29T04:56:50.499Z,80.08
2017-11-29T04:57:50.516Z,79.8
2017-11-29T04:58:50.530Z,80.27
2017-11-29T04:59:50.593Z,79.61
2017-11-29T05:00:50.301Z,79.61
2017-11-29T05:01:50.581Z,79.23
2017-11-29T05:02:50.599Z,79.42
2017-11-29T05:03:50.606Z,79.23
2017-11-29T05:04:50.624Z,79.52
2017-11-29T05:05:50.373Z,79.52
2017-11-29T05:06:50.650Z,79.42
2017-11-29T05:07:50.663Z,79.14
2017-11-29T05:08:50.674Z,79.71
2017-11-29T05:09:50.432Z,80.18
2017-11-29T05:10:50.703Z,79.8
2017-11-29T05:11:50.462Z,79.23
2017-11-29T05:12:50.473Z,79.23
2017-11-29T05:13:50.751Z,79.71
2017-11-29T05:14:50.812Z,79.23
2017-11-29T05:15:50.517Z,79.23
2017-11-29T05:16:50.795Z,78.85
2017-11-29T05:17:50.805Z,79.04
2017-11-29T05:18:50.563Z,79.04
2017-11-29T05:19:50.837Z,79.66
2017-11-29T05:20:50.851Z,79.38
2017-11-29T05:21:50.864Z,80.14
2017-11-29T05:22:50.884Z,79.85
2017-11-29T05:23:50.936Z,80.27
2017-11-29T05:24:50.913Z,79.85
2017-11-29T05:25:50.928Z,79.95
2017-11-29T05:26:50.680Z,79.8
2017-11-29T05:27:50.957Z,79.23
2017-11-29T05:28:50.975Z,79.14
2017-11-29T05:29:51.040Z,78.95
2017-11-29T05:30:50.739Z,78.85
2017-11-29T05:31:51.016Z,79.04
2017-11-29T05:32:51.029Z,78.95
2017-11-29T05:33:50.783Z,78.95
2017-11-29T05:34:50.802Z,78.66
2017-11-29T05:35:51.071Z,78.85
2017-11-29T05:36:50.833Z,78.95
2017-11-29T05:37:51.098Z,78.47
2017-11-29T05:38:50.912Z,78.47
2017-11-29T05:39:50.981Z,78.47
2017-11-29T05:40:51.153Z,78.47
2017-11-29T05:41:51.178Z,78.47
2017-11-29T05:42:51.176Z,78.38
2017-11-29T05:43:51.189Z,77.9
2017-11-29T05:44:51.002Z,78.75
2017-11-29T05:45:50.963Z,78.19
2017-11-29T05:46:51.230Z,78.38
2017-11-29T05:47:51.247Z,77.9
2017-11-29T05:48:51.264Z,77.9
2017-11-29T05:49:51.296Z,78.09
2017-11-29T05:50:51.294Z,77.81
2017-11-29T05:51:51.310Z,78.38
2017-11-29T05:52:51.065Z,77.62
2017-11-29T05:53:51.345Z,77.43
2017-11-29T05:54:51.354Z,77.81
2017-11-29T05:55:51.111Z,77.47
2017-11-29T05:56:51.383Z,77.09
2017-11-29T05:57:51.399Z,77.28
2017-11-29T05:58:51.418Z,76.99
2017-11-29T05:59:51.488Z,76.99
2017-11-29T06:00:51.449Z,77.37
2017-11-29T06:01:51.460Z,77.18
2017-11-29T06:02:51.220Z,77.66
2017-11-29T06:03:51.492Z,77.47
2017-11-29T06:04:51.506Z,77.37
2017-11-29T06:05:51.520Z,77.56
2017-11-29T06:06:51.536Z,76.99
2017-11-29T06:07:51.296Z,77.66
2017-11-29T06:08:51.584Z,76.99
2017-11-29T06:09:51.581Z,77.28
2017-11-29T06:10:51.600Z,77.09
2017-11-29T06:11:51.616Z,76.99
2017-11-29T06:12:51.627Z,77.56
2017-11-29T06:13:51.388Z,77.09
2017-11-29T06:14:51.661Z,76.99
2017-11-29T06:15:51.427Z,77.09
2017-11-29T06:16:51.690Z,76.8
2017-11-29T06:17:51.456Z,76.8
2017-11-29T06:18:51.773Z,77.09
2017-11-29T06:19:51.738Z,76.99
2017-11-29T06:20:51.752Z,76.8
2017-11-29T06:21:51.769Z,76.52
2017-11-29T06:22:51.791Z,76.9
2017-11-29T06:23:51.807Z,76.8
2017-11-29T06:24:51.558Z,77.47
2017-11-29T06:25:51.574Z,77.09
2017-11-29T06:26:51.848Z,76.99
2017-11-29T06:27:51.881Z,77.18
2017-11-29T06:28:51.878Z,77.05
2017-11-29T06:29:51.901Z,77.18
2017-11-29T06:30:51.925Z,77.18
2017-11-29T06:31:51.926Z,77.47
2017-11-29T06:32:51.948Z,77.75
2017-11-29T06:33:52.010Z,77.37
2017-11-29T06:34:51.989Z,77.47
2017-11-29T06:35:51.990Z,76.9
2017-11-29T06:36:52.000Z,76.8
2017-11-29T06:37:52.016Z,76.9
2017-11-29T06:38:52.033Z,77.09
2017-11-29T06:39:51.790Z,76.52
2017-11-29T06:40:52.065Z,76.8
2017-11-29T06:41:52.083Z,77.18
2017-11-29T06:42:51.838Z,77.47
2017-11-29T06:43:52.160Z,77.09
2017-11-29T06:44:52.156Z,76.8
2017-11-29T06:45:52.139Z,77.47
2017-11-29T06:46:52.158Z,77.18
2017-11-29T06:47:52.179Z,76.99
2017-11-29T06:48:52.237Z,77.84
2017-11-29T06:49:51.945Z,77.43
2017-11-29T06:50:51.960Z,77.56
2017-11-29T06:51:51.975Z,77.52
2017-11-29T06:52:51.996Z,77.56
2017-11-29T06:53:52.008Z,77.66
2017-11-29T06:54:52.302Z,77.28
2017-11-29T06:55:52.306Z,76.9
2017-11-29T06:56:52.312Z,77.18
2017-11-29T06:57:52.323Z,77.28
2017-11-29T06:58:52.342Z,77.09
2017-11-29T06:59:52.098Z,76.9
2017-11-29T07:00:52.373Z,77.56
2017-11-29T07:01:52.391Z,77.37
2017-11-29T07:02:52.400Z,77.66
2017-11-29T07:03:52.159Z,77.47
2017-11-29T07:04:52.431Z,77.66
2017-11-29T07:05:52.445Z,77.37
2017-11-29T07:06:52.478Z,77.47
2017-11-29T07:07:52.532Z,77.09
2017-11-29T07:08:52.494Z,77.66
2017-11-29T07:09:52.513Z,78.13
2017-11-29T07:10:52.531Z,77.47
2017-11-29T07:11:52.541Z,78.42
2017-11-29T07:12:52.603Z,78.23
2017-11-29T07:13:52.572Z,78.13
2017-11-29T07:14:52.594Z,78.13
2017-11-29T07:15:52.599Z,76.8
2017-11-29T07:16:52.617Z,77.84
2017-11-29T07:17:52.630Z,76.99
2017-11-29T07:18:52.393Z,76.8
2017-11-29T07:19:52.664Z,77.03
2017-11-29T07:20:52.422Z,77.22
2017-11-29T07:21:52.699Z,76.84
2017-11-29T07:22:52.715Z,77.22
2017-11-29T07:23:52.472Z,76.8
2017-11-29T07:24:52.484Z,76.61
2017-11-29T07:25:52.553Z,76.8
2017-11-29T07:26:52.774Z,76.9
2017-11-29T07:27:52.789Z,77.37
2017-11-29T07:28:52.549Z,77.28
2017-11-29T07:29:52.826Z,77.28
2017-11-29T07:30:52.630Z,76.9
2017-11-29T07:31:52.595Z,76.99
2017-11-29T07:32:52.868Z,76.52
2017-11-29T07:33:52.890Z,76.61
2017-11-29T07:34:52.908Z,77.22
2017-11-29T07:35:52.928Z,76.42
2017-11-29T07:36:52.932Z,75.99
2017-11-29T07:37:52.950Z,75.99
2017-11-29T07:38:52.708Z,75.79
2017-11-29T07:39:52.985Z,74.94
2017-11-29T07:40:53.045Z,75.23
2017-11-29T07:41:53.014Z,75.51
2017-11-29T07:42:53.041Z,74.75
2017-11-29T07:43:53.042Z,75.23
2017-11-29T07:44:53.061Z,75.28
2017-11-29T07:45:53.084Z,75.47
2017-11-29T07:46:53.093Z,75.57
2017-11-29T07:47:53.105Z,75.32
2017-11-29T07:48:53.141Z,75.51
2017-11-29T07:49:53.140Z,75.79
2017-11-29T07:50:53.156Z,75.23
2017-11-29T07:51:52.917Z,75.51
2017-11-29T07:52:53.188Z,74.08
2017-11-29T07:53:52.948Z,74.47
2017-11-29T07:54:53.221Z,73.99
2017-11-29T07:55:53.294Z,73.9
2017-11-29T07:56:53.249Z,73.8
2017-11-29T07:57:53.014Z,73.99
2017-11-29T07:58:53.284Z,74.27
2017-11-29T07:59:53.299Z,74.47
2017-11-29T08:00:53.316Z,74.56
2017-11-29T08:01:53.331Z,73.9
2017-11-29T08:02:53.363Z,74.08
2017-11-29T08:03:53.366Z,74.37
2017-11-29T08:04:53.123Z,73.33
2017-11-29T08:05:53.402Z,73.42
2017-11-29T08:06:53.158Z,73.23
2017-11-29T08:07:53.445Z,73.8
2017-11-29T08:08:53.446Z,73.42
2017-11-29T08:09:53.469Z,73.52
2017-11-29T08:10:53.529Z,73.18
2017-11-29T08:11:53.497Z,72.51
2017-11-29T08:12:53.512Z,72.95
2017-11-29T08:13:53.531Z,73.8
2017-11-29T08:14:53.543Z,73.8
2017-11-29T08:15:53.580Z,72.99
2017-11-29T08:16:53.574Z,72.7
2017-11-29T08:17:53.593Z,72.99
2017-11-29T08:18:53.351Z,73.18
2017-11-29T08:19:53.372Z,73.14
2017-11-29T08:20:53.642Z,72.99
2017-11-29T08:21:53.653Z,72.6
2017-11-29T08:22:53.683Z,72.47
2017-11-29T08:23:53.688Z,72.41
2017-11-29T08:24:53.708Z,72.19
2017-11-29T08:25:53.721Z,72.75
2017-11-29T08:26:53.741Z,73.04
2017-11-29T08:27:53.765Z,73.23
2017-11-29T08:28:53.775Z,73.8
2017-11-29T08:29:53.799Z,73.8
2017-11-29T08:30:53.804Z,73.9
2017-11-29T08:31:53.825Z,73.99
2017-11-29T08:32:53.577Z,73.9
2017-11-29T08:33:53.849Z,73.61
2017-11-29T08:34:53.611Z,73.18
2017-11-29T08:35:53.891Z,73.8
2017-11-29T08:36:53.906Z,73.8
2017-11-29T08:37:53.918Z,74.37
2017-11-29T08:38:53.933Z,73.99
2017-11-29T08:39:53.951Z,74.94
2017-11-29T08:40:53.965Z,74.27
2017-11-29T08:41:53.724Z,74.18
2017-11-29T08:42:53.995Z,74.56
2017-11-29T08:43:54.019Z,74.18
2017-11-29T08:44:54.062Z,74.37
2017-11-29T08:45:53.792Z,74.37
2017-11-29T08:46:54.065Z,73.8
2017-11-29T08:47:54.082Z,73.23
2017-11-29T08:48:54.098Z,72.99
2017-11-29T08:49:53.858Z,73.65
2017-11-29T08:50:54.127Z,72.51
2017-11-29T08:51:54.146Z,72.6
2017-11-29T08:52:54.178Z,71.75
2017-11-29T08:53:53.922Z,72.32
2017-11-29T08:54:54.200Z,72.95
2017-11-29T08:55:54.218Z,73.08
2017-11-29T08:56:53.973Z,73.08
2017-11-29T08:57:54.295Z,73.08
2017-11-29T08:58:54.004Z,72.7
2017-11-29T08:59:54.020Z,72.41
2017-11-29T09:00:54.306Z,72.85
2017-11-29T09:01:54.315Z,72.79
2017-11-29T09:02:54.331Z,72.41
2017-11-29T09:03:54.343Z,71.75
2017-11-29T09:04:54.359Z,72.6
2017-11-29T09:05:54.121Z,72.41
2017-11-29T09:06:54.137Z,72.41
2017-11-29T09:07:54.410Z,72.51
2017-11-29T09:08:54.169Z,72.41
2017-11-29T09:09:54.469Z,72.22
2017-11-29T09:10:54.463Z,71.56
2017-11-29T09:11:54.480Z,71.84
2017-11-29T09:12:54.236Z,71.94
2017-11-29T09:13:54.508Z,71.84
2017-11-29T09:14:54.318Z,71.66
2017-11-29T09:15:54.545Z,72.41
2017-11-29T09:16:54.562Z,71.56
2017-11-29T09:17:54.321Z,71.66
2017-11-29T09:18:54.611Z,72.32
2017-11-29T09:19:54.613Z,72.79
2017-11-29T09:20:54.635Z,71.56
2017-11-29T09:21:54.643Z,71.84
2017-11-29T09:22:54.661Z,72
2017-11-29T09:23:54.683Z,72.22
2017-11-29T09:24:54.440Z,72.03
2017-11-29T09:25:54.713Z,71.94
2017-11-29T09:26:54.733Z,71.66
2017-11-29T09:27:54.746Z,71.27
2017-11-29T09:28:54.504Z,71.75
2017-11-29T09:29:54.782Z,71.37
2017-11-29T09:30:54.801Z,71.75
2017-11-29T09:31:54.556Z,72.41
2017-11-29T09:32:54.827Z,71.56
2017-11-29T09:33:54.847Z,71.75
2017-11-29T09:34:54.865Z,72.51
2017-11-29T09:35:54.882Z,71.75
2017-11-29T09:36:54.895Z,71.75
2017-11-29T09:37:54.912Z,71.08
2017-11-29T09:38:54.932Z,70.79
2017-11-29T09:39:54.950Z,70.61
2017-11-29T09:40:54.984Z,70.36
2017-11-29T09:41:54.746Z,70.07
2017-11-29T09:42:54.996Z,70.51
2017-11-29T09:43:55.022Z,71.18
2017-11-29T09:44:55.035Z,71.08
2017-11-29T09:45:54.792Z,71.27
2017-11-29T09:46:55.072Z,70.79
2017-11-29T09:47:55.084Z,71.08
2017-11-29T09:48:54.911Z,71.08
2017-11-29T09:49:55.111Z,70.7
2017-11-29T09:50:55.133Z,71.18
2017-11-29T09:51:55.157Z,71.27
2017-11-29T09:52:54.910Z,70.89
2017-11-29T09:53:54.932Z,70.79
2017-11-29T09:54:55.200Z,70.61
2017-11-29T09:55:55.222Z,70.51
2017-11-29T09:56:55.233Z,69.66
2017-11-29T09:57:55.257Z,69.21
2017-11-29T09:58:55.266Z,69.12
2017-11-29T09:59:55.026Z,68.55
2017-11-29T10:00:55.299Z,68.46
2017-11-29T10:01:55.318Z,68.27
2017-11-29T10:02:55.330Z,68.27
2017-11-29T10:03:55.147Z,68.17
2017-11-29T10:04:55.110Z,67.88
2017-11-29T10:05:55.125Z,68.17
2017-11-29T10:06:55.411Z,67.6
2017-11-29T10:07:55.164Z,67.41
2017-11-29T10:08:55.436Z,67.79
2017-11-29T10:09:55.450Z,66.94
2017-11-29T10:10:55.467Z,66.94
2017-11-29T10:11:55.503Z,66.94
2017-11-29T10:12:55.246Z,66.97
2017-11-29T10:13:55.527Z,66.97
2017-11-29T10:14:55.282Z,66.87
2017-11-29T10:15:55.554Z,65.83
2017-11-29T10:16:55.322Z,65.45
2017-11-29T10:17:55.593Z,64.9
2017-11-29T10:18:55.608Z,65
2017-11-29T10:19:55.368Z,64.43
2017-11-29T10:20:55.387Z,63.76
2017-11-29T10:21:55.403Z,63.35
2017-11-29T10:22:55.673Z,64.21
2017-11-29T10:23:55.438Z,64.97
2017-11-29T10:24:55.716Z,65.35
2017-11-29T10:25:55.475Z,64.97
2017-11-29T10:26:55.494Z,65.6
2017-11-29T10:27:55.770Z,65.25
2017-11-29T10:28:55.838Z,65.7
2017-11-29T10:29:55.798Z,66.84
2017-11-29T10:30:55.824Z,67.22
2017-11-29T10:31:55.578Z,66.94
2017-11-29T10:32:55.595Z,67.5
2017-11-29T10:33:55.866Z,68.04
2017-11-29T10:34:55.633Z,68.33
2017-11-29T10:35:55.645Z,68.42
2017-11-29T10:36:55.918Z,68.61
2017-11-29T10:37:55.937Z,69.27
2017-11-29T10:38:55.963Z,69.09
2017-11-29T10:39:55.711Z,69.56
2017-11-29T10:40:55.781Z,70.04
2017-11-29T10:41:56.001Z,69.09
2017-11-29T10:42:55.761Z,70.13
2017-11-29T10:43:56.040Z,69.85
2017-11-29T10:44:55.795Z,69.94
2017-11-29T10:45:56.068Z,69.85
2017-11-29T10:46:56.088Z,70.7
2017-11-29T10:47:56.105Z,70.7
2017-11-29T10:48:56.116Z,70.45
2017-11-29T10:49:56.138Z,70.7
2017-11-29T10:50:56.149Z,71.27
2017-11-29T10:51:55.910Z,71.97
2017-11-29T10:52:56.186Z,72.35
2017-11-29T10:53:55.944Z,73.11
2017-11-29T10:54:55.974Z,72.55
2017-11-29T10:55:56.233Z,71.97
2017-11-29T10:56:56.301Z,71.88
2017-11-29T10:57:56.269Z,72.83
2017-11-29T10:58:56.025Z,72.55
2017-11-29T10:59:56.301Z,72.55
2017-11-29T11:00:56.080Z,71.59
2017-11-29T11:01:56.332Z,72.07
2017-11-29T11:02:56.350Z,72.45
2017-11-29T11:03:56.107Z,72.45
2017-11-29T11:04:56.124Z,72.92
2017-11-29T11:05:56.398Z,73.93
2017-11-29T11:06:56.164Z,74.16
2017-11-29T11:07:56.429Z,73.49
2017-11-29T11:08:56.463Z,73.46
2017-11-29T11:09:56.468Z,73.65
2017-11-29T11:10:56.479Z,74.03
2017-11-29T11:11:56.553Z,75.17
2017-11-29T11:12:56.511Z,75.84
2017-11-29T11:13:56.529Z,76.69
2017-11-29T11:14:56.548Z,77.07
2017-11-29T11:15:56.563Z,76.4
2017-11-29T11:16:56.585Z,75.3
2017-11-29T11:17:56.595Z,75.17
2017-11-29T11:18:56.616Z,75.26
2017-11-29T11:19:56.633Z,76.25
2017-11-29T11:20:56.647Z,75.11
2017-11-29T11:21:56.661Z,74.26
2017-11-29T11:22:56.681Z,74.31
2017-11-29T11:23:56.692Z,74.51
2017-11-29T11:24:56.709Z,74.26
2017-11-29T11:25:56.473Z,74.6
2017-11-29T11:26:56.745Z,74.54
2017-11-29T11:27:56.505Z,73.69
2017-11-29T11:28:56.785Z,73.84
2017-11-29T11:29:56.867Z,74.54
2017-11-29T11:30:56.808Z,74.31
2017-11-29T11:31:56.825Z,74.35
2017-11-29T11:32:56.875Z,73.78
2017-11-29T11:33:56.860Z,73.74
2017-11-29T11:34:56.878Z,73.88
2017-11-29T11:35:56.925Z,73.78
2017-11-29T11:36:56.907Z,73.69
2017-11-29T11:37:56.920Z,73.02
2017-11-29T11:38:56.682Z,74.22
2017-11-29T11:39:56.957Z,74.35
2017-11-29T11:40:56.979Z,73.88
2017-11-29T11:41:56.993Z,74.22
2017-11-29T11:42:57.002Z,74.63
2017-11-29T11:43:56.764Z,74.82
2017-11-29T11:44:57.088Z,74.35
2017-11-29T11:45:57.053Z,74.54
2017-11-29T11:46:57.069Z,74.12
2017-11-29T11:47:57.081Z,74.41
2017-11-29T11:48:57.102Z,74.88
2017-11-29T11:49:57.124Z,76.31
2017-11-29T11:50:56.873Z,75.93
2017-11-29T11:51:57.165Z,75.55
2017-11-29T11:52:57.172Z,77.07
2017-11-29T11:53:57.187Z,77.07
2017-11-29T11:54:57.198Z,77.87
2017-11-29T11:55:57.214Z,76.35
2017-11-29T11:56:57.235Z,77.68
2017-11-29T11:57:57.274Z,77.49
2017-11-29T11:58:57.268Z,76.31
2017-11-29T11:59:57.326Z,77.01
2017-11-29T12:00:57.303Z,76.73
2017-11-29T12:01:57.313Z,76.25
2017-11-29T12:02:57.326Z,75.4
2017-11-29T12:03:57.090Z,74.26
2017-11-29T12:04:57.357Z,75.68
2017-11-29T12:05:57.377Z,74.82
2017-11-29T12:06:57.393Z,75.68
2017-11-29T12:07:57.411Z,76.82
2017-11-29T12:08:57.166Z,76.73
2017-11-29T12:09:57.440Z,75.02
2017-11-29T12:10:57.198Z,75.49
2017-11-29T12:11:57.473Z,75.68
2017-11-29T12:12:57.492Z,74.73
2017-11-29T12:13:57.507Z,75.68
2017-11-29T12:14:57.518Z,76.06
2017-11-29T12:15:57.280Z,75.4
2017-11-29T12:16:57.603Z,74.73
2017-11-29T12:17:57.580Z,74.26
2017-11-29T12:18:57.586Z,74.92
2017-11-29T12:19:57.607Z,74.07
2017-11-29T12:20:57.685Z,74.48
2017-11-29T12:21:57.641Z,73.82
2017-11-29T12:22:57.656Z,73.15
2017-11-29T12:23:57.671Z,73.59
2017-11-29T12:24:57.427Z,74.35
2017-11-29T12:25:57.717Z,75.59
2017-11-29T12:26:57.721Z,75.3
2017-11-29T12:27:57.737Z,75.68
2017-11-29T12:28:57.750Z,75.78
2017-11-29T12:29:57.508Z,76.25
2017-11-29T12:30:57.793Z,75.59
2017-11-29T12:31:57.549Z,75.59
2017-11-29T12:32:57.825Z,76.25
2017-11-29T12:33:57.833Z,76.63
2017-11-29T12:34:57.852Z,76.44
2017-11-29T12:35:57.868Z,76.63
2017-11-29T12:36:57.883Z,77.11
2017-11-29T12:37:57.900Z,77.97
2017-11-29T12:38:57.916Z,77.97
2017-11-29T12:39:57.933Z,77.39
2017-11-29T12:40:57.689Z,77.58
2017-11-29T12:41:57.961Z,75.81
2017-11-29T12:42:58.182Z,75.72
2017-11-29T12:43:57.998Z,75.72
2017-11-29T12:44:57.764Z,74.77
2017-11-29T12:45:57.790Z,75.62
2017-11-29T12:46:58.047Z,75.62
2017-11-29T12:47:57.810Z,76.86
2017-11-29T12:48:58.083Z,75.81
2017-11-29T12:49:58.098Z,75.34
2017-11-29T12:50:58.117Z,74.96
2017-11-29T12:51:58.132Z,73.63
2017-11-29T12:52:58.146Z,72.83
2017-11-29T12:53:58.171Z,73.59
2017-11-29T12:54:58.184Z,73.88
2017-11-29T12:55:57.944Z,74.26
2017-11-29T12:56:58.227Z,74.07